Matsuyama, Japan
Current Conditions -  °F | °C
As of 1:00 PM on Tuesday 21 Oct 2014 (Local Time) from RJOM Reporting Station
Few Clouds Few Clouds  
Wind Chill: 77°   Ceiling: Unl
Heat Index: 79°   Visibility: 6mi
Dew Point: 63°   Wind: 5mph
Humidity: 61%   Direction: 310°NW
Pressure: 29.94"   Gusts: NA
Location:  33.84°N, 132.77°E
Report Text: RJOM 210400Z 31004KT 280V340 9999 FEW035 25/17 Q1014
Loading
Personal Weather Stations






























Interactive Weather Map
Tropical Storm Tracking
New forecast layout! Learn more

10-Day Weather Forecast

Advertisements
Track Severe Weather on mobile